Time;durP1;ratioP1;P1;durP2;ratioP2;P2;SDS_P1;SDS_P2;PMS_P1;PMS_P2;Temp;Humidity;BMP_temperature;BMP_pressure;BME280_temperature;BME280_humidity;BME280_pressure;Samples;Min_cycle;Max_cycle;Signal;HPM_P1;HPM_P2
2022/12/21 00:01:13;;;;;;;88.70;40.35;;;8.20;99.90;;;;;;5019624;28;20060;-75
2022/12/21 00:03:39;;;;;;;71.15;34.67;;;8.20;99.90;;;;;;5028391;28;20044;-75
2022/12/21 00:06:06;;;;;;;70.95;33.13;;;8.20;99.90;;;;;;5024487;28;20554;-75
2022/12/21 00:08:41;;;;;;;81.65;38.22;;;8.10;99.90;;;;;;5029173;28;20220;-76
2022/12/21 00:11:08;;;;;;;80.50;36.08;;;8.10;99.90;;;;;;5028534;28;21211;-75
2022/12/21 00:13:33;;;;;;;84.00;36.42;;;8.00;99.90;;;;;;5014418;28;20478;-75
2022/12/21 00:16:02;;;;;;;78.70;35.95;;;8.10;99.90;;;;;;5023417;28;20141;-75
2022/12/21 00:18:31;;;;;;;69.97;31.88;;;8.00;99.90;;;;;;5026129;28;20057;-75
2022/12/21 00:20:59;;;;;;;74.80;35.40;;;8.00;99.90;;;;;;5025844;28;20572;-75
2022/12/21 00:23:25;;;;;;;86.07;37.85;;;8.00;99.90;;;;;;5028386;28;20120;-75
2022/12/21 00:25:51;;;;;;;76.80;34.10;;;8.00;99.90;;;;;;5026000;28;20120;-75
2022/12/21 00:28:16;;;;;;;66.07;31.05;;;7.90;99.90;;;;;;5027358;28;20037;-75
2022/12/21 00:30:42;;;;;;;63.08;31.17;;;7.90;99.90;;;;;;5023736;28;20045;-75
2022/12/21 00:33:08;;;;;;;64.25;29.65;;;7.90;99.90;;;;;;5022345;28;20045;-75
2022/12/21 00:35:33;;;;;;;79.10;33.72;;;7.80;99.90;;;;;;5023047;28;20060;-75
2022/12/21 00:37:59;;;;;;;75.53;34.50;;;7.80;99.90;;;;;;5027437;28;20387;-75
2022/12/21 00:40:24;;;;;;;70.65;33.00;;;7.80;99.90;;;;;;5027858;28;20045;-75
2022/12/21 00:42:50;;;;;;;65.10;32.38;;;7.70;99.90;;;;;;5028169;28;20048;-75
2022/12/21 00:45:16;;;;;;;65.90;30.10;;;7.70;99.90;;;;;;5027035;28;20111;-75
2022/12/21 00:47:41;;;;;;;70.03;32.92;;;7.70;99.90;;;;;;5028619;28;20045;-75
2022/12/21 00:50:07;;;;;;;71.10;30.02;;;7.70;99.90;;;;;;5028186;28;20061;-75
2022/12/21 00:52:33;;;;;;;84.43;36.13;;;7.60;99.90;;;;;;5023687;28;20038;-75
2022/12/21 00:54:58;;;;;;;74.88;32.85;;;7.60;99.90;;;;;;5027757;28;20046;-75
2022/12/21 00:57:24;;;;;;;90.15;36.72;;;7.60;99.90;;;;;;5026578;28;20518;-75
2022/12/21 00:59:50;;;;;;;84.25;36.03;;;7.60;99.90;;;;;;5029614;28;20085;-75
2022/12/21 01:02:16;;;;;;;80.65;36.90;;;7.50;99.90;;;;;;5032007;28;20053;-75
2022/12/21 01:04:42;;;;;;;74.57;31.98;;;7.50;99.90;;;;;;5028097;28;20566;-75
2022/12/21 01:07:07;;;;;;;70.72;32.70;;;7.50;99.90;;;;;;5025180;28;20056;-75
2022/12/21 01:09:33;;;;;;;77.88;32.83;;;7.40;99.90;;;;;;5026401;28;20986;-75
2022/12/21 01:11:59;;;;;;;89.53;36.08;;;7.40;99.90;;;;;;5027817;28;20169;-74
2022/12/21 01:14:25;;;;;;;77.95;32.92;;;7.40;99.90;;;;;;5024844;28;20049;-74
2022/12/21 01:16:50;;;;;;;72.05;34.42;;;7.40;99.90;;;;;;5028069;28;20124;-75
2022/12/21 01:19:16;;;;;;;81.75;33.58;;;7.40;99.90;;;;;;5027075;28;20037;-74
2022/12/21 01:21:42;;;;;;;87.10;37.25;;;7.30;99.90;;;;;;5027532;28;20117;-75
2022/12/21 01:24:12;;;;;;;91.40;36.33;;;7.30;99.90;;;;;;5019134;28;20057;-75
2022/12/21 01:26:38;;;;;;;105.40;39.35;;;7.30;99.90;;;;;;5026894;28;20081;-75
2022/12/21 01:29:04;;;;;;;111.10;40.55;;;7.30;99.90;;;;;;5024530;28;20049;-75
2022/12/21 01:31:30;;;;;;;97.57;37.92;;;7.20;99.90;;;;;;5025580;28;20052;-75
2022/12/21 01:33:56;;;;;;;104.15;39.55;;;7.20;99.90;;;;;;5027594;28;20163;-75
2022/12/21 01:36:23;;;;;;;129.02;40.88;;;7.30;99.90;;;;;;5011346;28;20042;-75
2022/12/21 01:38:49;;;;;;;106.18;36.20;;;7.30;99.90;;;;;;5021263;28;20049;-75
2022/12/21 01:41:24;;;;;;;104.90;38.97;;;7.30;99.90;;;;;;5022116;28;20383;-74
2022/12/21 01:43:52;;;;;;;99.70;35.30;;;7.30;99.90;;;;;;5020108;28;20537;-75
2022/12/21 01:46:28;;;;;;;106.72;36.45;;;7.30;99.90;;;;;;5023084;28;20053;-75
2022/12/21 01:49:23;;;;;;;122.35;38.13;;;7.30;99.90;;;;;;5025525;28;20051;-75
2022/12/21 01:52:02;;;;;;;106.80;37.95;;;7.30;99.90;;;;;;5022501;28;20037;-75
2022/12/21 01:54:33;;;;;;;87.95;35.95;;;7.30;99.90;;;;;;5024438;28;20045;-75
2022/12/21 01:57:01;;;;;;;115.45;38.25;;;7.30;99.90;;;;;;5034436;28;20041;-75
2022/12/21 01:59:35;;;;;;;84.03;33.50;;;7.30;99.90;;;;;;5022520;28;20372;-75
2022/12/21 02:02:12;;;;;;;94.57;35.75;;;7.30;99.90;;;;;;5025401;28;20049;-75
2022/12/21 02:04:38;;;;;;;125.25;38.83;;;7.30;99.90;;;;;;5023600;28;20494;-75
2022/12/21 02:07:04;;;;;;;99.35;37.60;;;7.30;99.90;;;;;;5010023;28;20041;-75
2022/12/21 02:09:33;;;;;;;111.05;38.47;;;7.20;99.90;;;;;;5026909;28;20384;-75
2022/12/21 02:12:04;;;;;;;111.47;38.13;;;7.30;99.90;;;;;;5026290;28;20055;-75
2022/12/21 02:14:34;;;;;;;107.97;35.05;;;7.30;99.90;;;;;;5023882;28;20049;-75
2022/12/21 02:17:36;;;;;;;92.07;36.97;;;7.20;99.90;;;;;;5026125;28;20056;-75
2022/12/21 02:20:39;;;;;;;113.82;36.65;;;7.20;99.90;;;;;;4994044;28;20542;-75
2022/12/21 02:23:11;;;;;;;112.07;37.95;;;7.20;99.90;;;;;;5022631;28;20529;-75
2022/12/21 02:25:51;;;;;;;99.15;34.92;;;7.20;99.90;;;;;;5021100;28;20152;-75
2022/12/21 02:28:48;;;;;;;93.97;35.05;;;7.20;99.90;;;;;;5025894;28;20053;-75
2022/12/21 02:31:32;;;;;;;95.32;35.80;;;7.20;99.90;;;;;;5025045;28;20084;-75
2022/12/21 02:34:26;;;;;;;122.68;40.22;;;7.30;99.90;;;;;;5020318;28;20060;-75
2022/12/21 02:37:07;;;;;;;92.60;35.45;;;7.20;99.90;;;;;;5022835;28;20052;-75
2022/12/21 02:40:05;;;;;;;99.22;35.45;;;7.20;99.90;;;;;;5017808;28;20049;-76
2022/12/21 02:46:20;;;;;;;89.68;31.25;;;7.20;99.90;;;;;;4949442;28;20062;-75
2022/12/21 02:48:56;;;;;;;97.78;31.73;;;7.20;99.90;;;;;;5020441;28;20057;-74
2022/12/21 02:51:29;;;;;;;112.65;34.05;;;7.20;99.90;;;;;;5019994;28;20099;-75
2022/12/21 02:53:55;;;;;;;99.47;34.35;;;7.20;99.90;;;;;;5022616;28;20054;-75
2022/12/21 02:56:21;;;;;;;115.30;35.10;;;7.20;99.90;;;;;;5024978;28;20122;-75
2022/12/21 02:58:48;;;;;;;145.48;42.38;;;7.20;99.90;;;;;;5026090;28;20045;-75
2022/12/21 03:01:19;;;;;;;101.95;33.35;;;7.20;99.90;;;;;;5025542;28;20060;-75
2022/12/21 03:04:04;;;;;;;109.65;36.00;;;7.20;99.90;;;;;;5025546;28;20140;-74
2022/12/21 03:06:33;;;;;;;111.28;35.88;;;7.20;99.90;;;;;;5020849;28;20160;-75
2022/12/21 03:09:26;;;;;;;112.90;35.50;;;7.20;99.90;;;;;;5022329;28;20052;-75
2022/12/21 03:12:04;;;;;;;108.38;34.58;;;7.20;99.90;;;;;;5020120;28;20053;-75
2022/12/21 03:14:56;;;;;;;95.57;35.40;;;7.30;99.90;;;;;;5025634;28;20188;-75
2022/12/21 03:17:53;;;;;;;102.32;36.05;;;7.20;99.90;;;;;;5025690;28;20094;-75
2022/12/21 03:20:39;;;;;;;169.38;39.72;;;7.20;99.90;;;;;;5018128;28;20049;-75
2022/12/21 03:23:20;;;;;;;103.10;34.10;;;7.20;99.90;;;;;;5023902;28;20528;-75
2022/12/21 03:26:06;;;;;;;117.75;34.42;;;7.20;99.90;;;;;;5042769;28;20103;-75
2022/12/21 03:28:35;;;;;;;105.63;32.20;;;7.20;99.90;;;;;;5026809;28;20064;-75
2022/12/21 03:31:16;;;;;;;82.60;27.85;;;7.20;99.90;;;;;;5020649;28;20065;-75
2022/12/21 03:33:46;;;;;;;84.60;28.60;;;7.20;99.90;;;;;;5027399;28;20042;-75
2022/12/21 03:36:36;;;;;;;161.93;38.33;;;7.20;99.90;;;;;;5027108;28;20457;-74
2022/12/21 03:39:08;;;;;;;94.38;30.65;;;7.20;99.90;;;;;;5021840;28;20128;-74
2022/12/21 03:41:39;;;;;;;84.32;29.17;;;7.20;99.90;;;;;;4999131;28;20171;-74
2022/12/21 03:44:11;;;;;;;93.47;28.88;;;7.20;99.90;;;;;;5029135;28;20048;-74
2022/12/21 03:46:49;;;;;;;93.13;31.77;;;7.20;99.90;;;;;;5028632;28;20060;-74
2022/12/21 03:49:40;;;;;;;127.93;35.95;;;7.20;99.90;;;;;;5021330;28;21528;-74
2022/12/21 03:52:10;;;;;;;77.78;27.95;;;7.20;99.90;;;;;;5024921;28;20087;-73
2022/12/21 03:54:57;;;;;;;118.85;32.13;;;7.20;99.90;;;;;;5020400;28;20053;-74
2022/12/21 03:57:23;;;;;;;86.88;28.73;;;7.20;99.90;;;;;;5027827;28;20124;-73
2022/12/21 03:59:53;;;;;;;82.85;29.77;;;7.20;99.90;;;;;;5028697;28;20053;-74
2022/12/21 04:02:32;;;;;;;91.60;31.77;;;7.20;99.90;;;;;;5029419;28;20053;-74
2022/12/21 04:05:30;;;;;;;169.63;39.83;;;7.20;99.90;;;;;;5029241;28;20104;-74
2022/12/21 04:07:56;;;;;;;;;;;7.20;99.90;;;;;;5040655;28;20872;-74
2022/12/21 04:10:23;;;;;;;126.80;34.58;;;7.10;99.90;;;;;;5027698;28;19933;-73
2022/12/21 04:12:50;;;;;;;108.07;35.28;;;7.10;99.90;;;;;;5028299;28;20100;-74
2022/12/21 04:15:19;;;;;;;92.82;33.70;;;7.20;99.90;;;;;;5026280;28;20509;-73
2022/12/21 04:17:48;;;;;;;187.52;43.00;;;7.20;99.90;;;;;;5028703;28;20060;-74
2022/12/21 04:20:22;;;;;;;109.03;34.60;;;7.20;99.90;;;;;;5027460;28;20143;-74
2022/12/21 04:28:29;;;;;;;147.18;36.40;;;7.10;99.90;;;;;;5028159;28;20477;-73
2022/12/21 04:30:56;;;;;;;128.40;36.15;;;7.10;99.90;;;;;;5025816;28;20414;-74
2022/12/21 04:33:23;;;;;;;116.53;33.40;;;7.10;99.90;;;;;;5026951;28;20367;-74
2022/12/21 04:38:36;;;;;;;109.88;32.08;;;7.10;99.90;;;;;;5024644;28;20053;-75
2022/12/21 04:41:03;;;;;;;83.68;30.58;;;7.10;99.90;;;;;;5027741;28;20080;-74
2022/12/21 04:43:29;;;;;;;97.43;31.58;;;7.10;99.90;;;;;;5027609;28;20042;-74
2022/12/21 04:46:02;;;;;;;102.75;33.45;;;7.10;99.90;;;;;;5028461;28;20419;-74
2022/12/21 04:48:29;;;;;;;89.38;32.60;;;7.10;99.90;;;;;;5029930;28;20124;-74
2022/12/21 04:50:54;;;;;;;124.07;36.83;;;7.10;99.90;;;;;;5025692;28;20060;-74
2022/12/21 04:53:21;;;;;;;99.20;33.80;;;7.10;99.90;;;;;;5028331;28;20049;-74
2022/12/21 04:55:46;;;;;;;110.22;34.45;;;7.10;99.90;;;;;;5024731;28;20041;-74
2022/12/21 04:58:12;;;;;;;101.22;34.15;;;7.20;99.90;;;;;;5028195;28;20056;-74
2022/12/21 05:00:38;;;;;;;110.22;36.22;;;7.10;99.90;;;;;;5027786;28;20510;-74
2022/12/21 05:03:04;;;;;;;102.55;35.10;;;7.20;99.90;;;;;;5027327;28;20129;-74
2022/12/21 05:05:30;;;;;;;154.50;40.63;;;7.20;99.90;;;;;;5024661;28;20914;-74
2022/12/21 05:07:56;;;;;;;182.57;43.80;;;7.10;99.90;;;;;;5022372;28;20053;-74
2022/12/21 05:10:21;;;;;;;134.73;38.63;;;7.10;99.90;;;;;;5016880;28;20053;-74
2022/12/21 05:12:47;;;;;;;130.13;41.17;;;7.20;99.90;;;;;;5024442;28;20124;-74
2022/12/21 05:15:13;;;;;;;130.32;41.45;;;7.20;99.90;;;;;;5027401;28;20103;-75
2022/12/21 05:17:39;;;;;;;122.13;40.97;;;7.20;99.90;;;;;;5027597;28;20048;-74
2022/12/21 05:20:06;;;;;;;126.30;39.97;;;7.20;99.90;;;;;;5026558;28;20499;-75
2022/12/21 05:22:31;;;;;;;157.68;41.08;;;7.20;99.90;;;;;;5023965;28;20046;-74
2022/12/21 05:24:58;;;;;;;186.77;46.95;;;7.20;99.90;;;;;;5009802;28;20064;-74
2022/12/21 05:27:24;;;;;;;151.70;42.83;;;7.20;99.90;;;;;;5026702;28;20045;-74
2022/12/21 05:29:50;;;;;;;129.32;38.55;;;7.10;99.90;;;;;;5022779;28;20045;-75
2022/12/21 05:32:16;;;;;;;130.40;40.67;;;7.20;99.90;;;;;;5027045;28;20033;-75
2022/12/21 05:34:41;;;;;;;128.00;43.50;;;7.10;99.90;;;;;;5027331;28;20041;-74
2022/12/21 05:37:07;;;;;;;161.95;46.40;;;7.20;99.90;;;;;;5025342;28;20448;-74
2022/12/21 05:39:39;;;;;;;148.00;44.45;;;7.20;99.90;;;;;;5026046;28;20041;-74
2022/12/21 05:42:04;;;;;;;154.88;42.22;;;7.20;99.90;;;;;;5032923;28;20861;-74
2022/12/21 05:44:30;;;;;;;178.38;48.45;;;7.20;99.90;;;;;;5023391;28;20037;-74
2022/12/21 05:46:55;;;;;;;185.00;48.60;;;7.20;99.90;;;;;;5025048;28;20041;-74
2022/12/21 05:49:21;;;;;;;140.70;44.35;;;7.20;99.90;;;;;;5026718;28;20057;-74
2022/12/21 05:51:48;;;;;;;192.07;50.28;;;7.20;99.90;;;;;;5027263;28;20046;-74
2022/12/21 05:54:15;;;;;;;142.18;44.55;;;7.20;99.90;;;;;;5025730;28;20467;-75
2022/12/21 05:56:40;;;;;;;156.43;48.88;;;7.20;99.90;;;;;;5021693;28;20045;-74
2022/12/21 05:59:06;;;;;;;190.88;51.13;;;7.20;99.90;;;;;;5010055;28;20454;-74
2022/12/21 06:01:32;;;;;;;259.85;59.25;;;7.20;99.90;;;;;;5025739;28;20072;-74
2022/12/21 06:03:58;;;;;;;171.45;51.25;;;7.20;99.90;;;;;;5011438;28;20611;-74
2022/12/21 06:06:24;;;;;;;228.38;58.38;;;7.20;99.90;;;;;;5016519;28;20071;-75
2022/12/21 06:08:50;;;;;;;161.05;50.53;;;7.20;99.90;;;;;;5023033;28;20128;-75
2022/12/21 06:11:21;;;;;;;216.65;56.58;;;7.20;99.90;;;;;;5011575;28;20049;-74
2022/12/21 06:13:48;;;;;;;184.55;54.38;;;7.30;99.90;;;;;;5018391;28;20049;-74
2022/12/21 06:16:19;;;;;;;207.52;59.15;;;7.20;99.90;;;;;;5022052;28;20474;-74
2022/12/21 06:18:45;;;;;;;175.40;54.42;;;7.30;99.90;;;;;;5018048;28;20406;-74
2022/12/21 06:21:12;;;;;;;177.05;56.15;;;7.30;99.90;;;;;;5020310;28;20050;-74
2022/12/21 06:23:39;;;;;;;164.85;54.13;;;7.30;99.90;;;;;;5025905;28;20522;-74
2022/12/21 06:26:06;;;;;;;176.95;55.78;;;7.30;99.90;;;;;;5020337;28;20377;-75
2022/12/21 06:28:33;;;;;;;218.02;61.80;;;7.30;99.90;;;;;;5025663;28;20045;-74
2022/12/21 06:31:11;;;;;;;174.07;56.97;;;7.30;99.90;;;;;;5024987;28;20180;-74
2022/12/21 06:33:37;;;;;;;176.50;56.50;;;7.30;99.90;;;;;;5020569;28;20053;-74
2022/12/21 06:36:04;;;;;;;193.15;60.65;;;7.30;99.90;;;;;;5025963;28;20041;-74
2022/12/21 06:38:31;;;;;;;171.65;57.58;;;7.30;99.90;;;;;;5026383;28;20073;-75
2022/12/21 06:40:59;;;;;;;183.27;58.17;;;7.30;99.90;;;;;;5019289;28;20057;-74
2022/12/21 06:43:27;;;;;;;190.75;57.50;;;7.30;99.90;;;;;;5019424;28;20092;-74
2022/12/21 06:46:02;;;;;;;206.63;60.20;;;7.30;99.90;;;;;;5025067;28;20125;-74
2022/12/21 06:48:28;;;;;;;195.73;56.22;;;7.30;99.90;;;;;;5026049;28;20087;-75
2022/12/21 06:50:56;;;;;;;185.45;59.53;;;7.30;99.90;;;;;;5025201;28;20054;-74
2022/12/21 06:53:23;;;;;;;206.70;62.50;;;7.30;99.90;;;;;;5025522;28;20053;-75
2022/12/21 06:55:49;;;;;;;155.05;54.05;;;7.30;99.90;;;;;;5021408;28;20716;-74
2022/12/21 06:58:15;;;;;;;172.07;57.15;;;7.30;99.90;;;;;;5023967;28;20522;-75
2022/12/21 07:00:41;;;;;;;206.73;57.40;;;7.30;99.90;;;;;;5023040;28;20073;-75
2022/12/21 07:03:06;;;;;;;200.90;61.25;;;7.30;99.90;;;;;;5025307;28;20049;-74
2022/12/21 07:05:33;;;;;;;153.15;53.60;;;7.40;99.90;;;;;;5004644;28;20041;-75
2022/12/21 07:07:59;;;;;;;171.95;53.58;;;7.30;99.90;;;;;;5020645;28;20060;-75
2022/12/21 07:10:25;;;;;;;187.70;58.75;;;7.40;99.90;;;;;;5021543;28;20692;-74
2022/12/21 07:12:51;;;;;;;167.32;54.17;;;7.30;99.90;;;;;;5024075;28;20120;-74
2022/12/21 07:15:17;;;;;;;199.68;60.28;;;7.30;99.90;;;;;;5021554;28;20123;-74
2022/12/21 07:17:42;;;;;;;204.02;60.30;;;7.40;99.90;;;;;;5025909;28;20571;-74
2022/12/21 07:20:08;;;;;;;157.15;53.05;;;7.40;99.90;;;;;;5025723;28;20068;-75
2022/12/21 07:22:34;;;;;;;158.40;53.08;;;7.30;99.90;;;;;;5023963;28;20071;-74
2022/12/21 07:24:59;;;;;;;140.80;48.60;;;7.30;99.90;;;;;;5023178;28;20045;-75
2022/12/21 07:27:25;;;;;;;172.07;52.85;;;7.30;99.90;;;;;;5014743;28;20212;-74
2022/12/21 07:29:52;;;;;;;156.38;48.03;;;7.30;99.90;;;;;;5025518;28;20865;-74
2022/12/21 07:32:17;;;;;;;166.85;49.83;;;7.30;99.90;;;;;;5023189;28;20037;-75
2022/12/21 07:34:43;;;;;;;160.82;51.55;;;7.30;99.90;;;;;;5026883;28;20053;-75
2022/12/21 07:37:09;;;;;;;179.55;56.83;;;7.30;99.90;;;;;;5023874;28;20835;-74
2022/12/21 07:39:34;;;;;;;141.70;45.97;;;7.30;99.90;;;;;;5025457;28;20049;-74
2022/12/21 07:42:00;;;;;;;159.95;48.80;;;7.30;99.90;;;;;;5025010;28;20483;-74
2022/12/21 07:44:25;;;;;;;145.05;50.25;;;7.30;99.90;;;;;;5025395;28;20126;-74
2022/12/21 07:46:51;;;;;;;152.10;51.70;;;7.30;99.90;;;;;;5024565;28;20049;-74
2022/12/21 07:49:17;;;;;;;164.80;53.65;;;7.30;99.90;;;;;;5022317;28;20057;-74
2022/12/21 07:51:42;;;;;;;161.75;52.10;;;7.30;99.90;;;;;;5022691;28;20061;-75
2022/12/21 07:54:08;;;;;;;173.13;54.67;;;7.30;99.90;;;;;;5025371;28;20049;-74
2022/12/21 07:56:33;;;;;;;169.00;51.10;;;7.30;99.90;;;;;;5025230;28;20052;-75
2022/12/21 07:59:00;;;;;;;168.88;51.60;;;7.30;99.90;;;;;;5023020;28;20529;-74
2022/12/21 08:01:26;;;;;;;204.57;57.63;;;7.30;99.90;;;;;;5021163;28;20414;-75
2022/12/21 08:03:52;;;;;;;146.10;51.88;;;7.30;99.90;;;;;;5027395;28;20052;-74
2022/12/21 08:06:18;;;;;;;186.27;57.03;;;7.30;99.90;;;;;;5013075;28;20052;-74
2022/12/21 08:08:45;;;;;;;152.90;52.95;;;7.30;99.90;;;;;;5020490;28;20053;-74
2022/12/21 08:11:15;;;;;;;155.73;50.70;;;7.30;99.90;;;;;;5019001;28;20046;-75
2022/12/21 08:13:42;;;;;;;157.20;57.28;;;7.30;99.90;;;;;;5013519;28;20052;-75
2022/12/21 08:16:11;;;;;;;163.55;53.42;;;7.30;99.90;;;;;;5021924;28;20172;-74
2022/12/21 08:18:37;;;;;;;171.50;54.50;;;7.30;99.90;;;;;;5020359;28;20052;-74
2022/12/21 08:21:04;;;;;;;189.35;56.92;;;7.30;99.90;;;;;;5014929;28;20487;-75
2022/12/21 08:23:30;;;;;;;173.85;56.58;;;7.30;99.90;;;;;;5028731;28;20053;-75
2022/12/21 08:26:03;;;;;;;182.43;55.25;;;7.30;99.90;;;;;;5026549;28;20041;-74
2022/12/21 08:28:30;;;;;;;199.63;59.55;;;7.30;99.90;;;;;;5028958;28;20053;-74
2022/12/21 08:31:10;;;;;;;155.00;54.40;;;7.30;99.90;;;;;;5029369;28;20045;-74
2022/12/21 08:33:40;;;;;;;189.00;59.47;;;7.30;99.90;;;;;;5028123;28;20552;-73
2022/12/21 08:36:09;;;;;;;183.52;57.67;;;7.30;99.90;;;;;;5027950;28;20053;-74
2022/12/21 08:38:35;;;;;;;187.88;56.90;;;7.30;99.90;;;;;;5024174;28;20156;-73
2022/12/21 08:41:02;;;;;;;185.27;58.78;;;7.30;99.90;;;;;;5028530;28;20061;-73
2022/12/21 08:43:28;;;;;;;194.25;57.92;;;7.30;99.90;;;;;;5027256;28;20154;-73
2022/12/21 08:45:54;;;;;;;157.57;55.40;;;7.30;99.90;;;;;;5019367;28;20136;-72
2022/12/21 08:48:19;;;;;;;184.93;59.13;;;7.30;99.90;;;;;;5025975;28;20401;-73
2022/12/21 08:50:52;;;;;;;154.95;53.55;;;7.30;99.90;;;;;;5025379;28;20047;-73
2022/12/21 08:53:17;;;;;;;166.70;55.95;;;7.40;99.90;;;;;;5028178;28;20467;-73
2022/12/21 08:55:43;;;;;;;200.02;59.65;;;7.30;99.90;;;;;;5027302;28;20115;-73
2022/12/21 08:58:09;;;;;;;161.82;58.70;;;7.30;99.90;;;;;;5028099;28;20128;-73
2022/12/21 09:00:34;;;;;;;189.55;57.95;;;7.30;99.90;;;;;;5026602;28;20048;-74
2022/12/21 09:03:00;;;;;;;196.05;59.13;;;7.40;99.90;;;;;;5026712;28;20053;-73
2022/12/21 09:05:26;;;;;;;161.68;54.00;;;7.40;99.90;;;;;;5020192;28;20070;-73
2022/12/21 09:07:51;;;;;;;172.02;58.50;;;7.40;99.90;;;;;;5027221;28;20077;-72
2022/12/21 09:10:17;;;;;;;155.60;55.50;;;7.40;99.90;;;;;;5025332;28;20048;-73
2022/12/21 09:12:43;;;;;;;170.50;58.67;;;7.40;99.90;;;;;;5026695;28;20041;-73
2022/12/21 09:15:09;;;;;;;170.48;57.47;;;7.40;99.90;;;;;;5025385;28;20403;-72
2022/12/21 09:17:35;;;;;;;169.65;56.38;;;7.40;99.90;;;;;;5015741;28;20042;-72
2022/12/21 09:20:00;;;;;;;159.52;56.63;;;7.50;99.90;;;;;;5026594;28;20566;-73
2022/12/21 09:22:26;;;;;;;165.95;55.55;;;7.50;99.90;;;;;;5026986;28;20049;-72
2022/12/21 09:24:52;;;;;;;172.95;57.90;;;7.50;99.90;;;;;;5025058;28;20083;-73
2022/12/21 09:27:18;;;;;;;159.75;59.55;;;7.50;99.90;;;;;;5029200;28;20045;-73
2022/12/21 09:29:44;;;;;;;170.55;63.97;;;7.50;99.90;;;;;;5027185;28;20048;-73
2022/12/21 09:32:10;;;;;;;169.95;63.38;;;7.60;99.90;;;;;;5026482;28;20053;-73
2022/12/21 09:34:36;;;;;;;157.68;56.10;;;7.60;99.90;;;;;;5022803;28;20479;-73
2022/12/21 09:37:01;;;;;;;165.85;58.55;;;7.60;99.90;;;;;;5024643;28;20072;-73
2022/12/21 09:39:27;;;;;;;155.77;54.20;;;7.60;99.90;;;;;;5027195;28;20053;-73
2022/12/21 09:42:08;;;;;;;172.95;59.85;;;7.60;99.90;;;;;;5023530;28;20052;-73
2022/12/21 09:44:48;;;;;;;159.60;55.40;;;7.70;99.90;;;;;;5018282;28;20051;-73
2022/12/21 09:47:25;;;;;;;142.38;53.42;;;7.70;99.90;;;;;;5019563;28;20558;-74
2022/12/21 09:49:59;;;;;;;148.95;53.22;;;7.70;99.90;;;;;;5017158;28;20095;-74
2022/12/21 09:52:40;;;;;;;152.90;54.80;;;7.70;99.90;;;;;;5026072;28;20547;-74
2022/12/21 09:55:16;;;;;;;158.60;57.50;;;7.70;99.90;;;;;;5026439;28;20052;-74
2022/12/21 09:57:43;;;;;;;140.13;54.50;;;7.80;99.90;;;;;;5026767;28;20069;-74
2022/12/21 10:00:18;;;;;;;146.10;54.25;;;7.80;99.90;;;;;;5020647;28;20053;-74
2022/12/21 10:03:11;;;;;;;134.10;52.78;;;7.80;99.90;;;;;;5022901;28;20116;-74
2022/12/21 10:06:14;;;;;;;136.93;53.25;;;7.80;99.90;;;;;;5023710;28;20052;-74
2022/12/21 10:09:07;;;;;;;142.27;54.53;;;7.70;99.90;;;;;;5019405;28;20088;-74
2022/12/21 10:11:39;;;;;;;144.88;54.15;;;7.80;99.90;;;;;;5023139;28;20045;-74
2022/12/21 10:14:22;;;;;;;163.13;59.42;;;7.80;99.90;;;;;;5024822;28;20060;-75
2022/12/21 10:17:01;;;;;;;146.43;57.13;;;7.80;99.90;;;;;;5031804;28;20072;-75
2022/12/21 10:20:05;;;;;;;171.00;61.42;;;7.80;99.90;;;;;;5023279;28;20049;-74
2022/12/21 10:22:42;;;;;;;133.55;54.75;;;7.80;99.90;;;;;;5029340;28;20059;-75
2022/12/21 10:25:18;;;;;;;162.88;56.33;;;7.80;99.90;;;;;;5020351;28;20045;-75
2022/12/21 10:27:50;;;;;;;138.70;54.20;;;7.80;99.90;;;;;;5025802;28;20049;-76
2022/12/21 10:30:16;;;;;;;136.05;55.33;;;7.80;99.90;;;;;;5026115;28;20045;-74
2022/12/21 10:32:46;;;;;;;162.63;58.28;;;7.80;99.90;;;;;;5025722;28;20053;-74
2022/12/21 10:35:20;;;;;;;156.05;55.35;;;7.90;99.90;;;;;;5028979;28;20102;-74
2022/12/21 10:37:50;;;;;;;145.75;56.97;;;7.90;99.90;;;;;;5021325;28;20053;-74
2022/12/21 10:40:16;;;;;;;138.38;55.22;;;7.90;99.90;;;;;;5025376;28;20082;-73
2022/12/21 10:42:45;;;;;;;117.03;52.92;;;7.90;99.90;;;;;;5026210;28;20099;-73
2022/12/21 10:45:16;;;;;;;125.88;49.50;;;7.90;99.90;;;;;;5025500;28;20045;-75
2022/12/21 10:47:44;;;;;;;111.18;47.13;;;7.90;99.90;;;;;;5025575;28;20449;-76
2022/12/21 10:50:18;;;;;;;115.95;45.00;;;7.90;99.90;;;;;;5023740;28;20514;-76
2022/12/21 10:52:48;;;;;;;115.93;46.83;;;7.90;99.90;;;;;;5022005;28;20045;-76
2022/12/21 10:55:19;;;;;;;109.30;47.03;;;7.90;99.90;;;;;;5021097;28;20452;-76
2022/12/21 10:57:47;;;;;;;110.65;46.10;;;7.90;99.90;;;;;;5023391;28;20041;-76
2022/12/21 11:00:29;;;;;;;109.72;47.20;;;7.90;99.90;;;;;;5023569;28;20041;-76
2022/12/21 11:02:57;;;;;;;117.30;49.67;;;8.00;99.90;;;;;;5022482;28;20057;-76
2022/12/21 11:05:33;;;;;;;;;;;8.00;99.90;;;;;;5023878;28;20053;-77
2022/12/21 11:08:18;;;;;;;114.45;47.17;;;8.00;99.90;;;;;;5018483;28;19925;-76
2022/12/21 11:10:46;;;;;;;122.10;45.60;;;8.00;99.90;;;;;;5020252;28;20037;-75
2022/12/21 11:13:13;;;;;;;120.43;46.92;;;8.00;99.90;;;;;;5020594;28;20049;-74
2022/12/21 11:16:02;;;;;;;113.88;47.20;;;8.10;99.90;;;;;;5021150;28;20128;-74
2022/12/21 11:18:33;;;;;;;;;;;8.10;99.90;;;;;;5029981;28;20049;-74
2022/12/21 11:21:05;;;;;;;123.88;46.75;;;8.20;99.90;;;;;;5029509;28;19944;-75
2022/12/21 11:23:31;;;;;;;115.05;45.85;;;8.20;99.90;;;;;;5018480;28;20069;-74
2022/12/21 11:25:59;;;;;;;108.78;50.00;;;8.20;99.90;;;;;;5016186;28;20053;-75
2022/12/21 11:28:25;;;;;;;104.03;48.63;;;8.30;99.90;;;;;;5025795;28;20419;-75
2022/12/21 11:31:05;;;;;;;109.35;47.38;;;8.30;99.90;;;;;;5026277;28;20041;-74
2022/12/21 11:33:31;;;;;;;112.47;47.17;;;8.30;99.90;;;;;;5024775;28;20054;-75
2022/12/21 11:36:10;;;;;;;111.30;46.53;;;8.40;99.90;;;;;;5025017;28;20057;-75
2022/12/21 11:38:37;;;;;;;94.80;44.47;;;8.40;99.90;;;;;;5017165;28;20777;-75
2022/12/21 11:41:10;;;;;;;102.38;43.08;;;8.40;99.90;;;;;;5025077;28;20045;-74
2022/12/21 11:43:48;;;;;;;93.90;43.10;;;8.50;99.90;;;;;;5027312;28;20056;-75
2022/12/21 11:46:42;;;;;;;106.80;42.13;;;8.40;99.90;;;;;;5023102;28;20076;-74
2022/12/21 11:49:52;;;;;;;99.30;43.40;;;8.50;99.90;;;;;;5029251;28;20041;-74
2022/12/21 11:52:18;;;;;;;130.65;46.00;;;8.50;99.90;;;;;;4989953;28;20049;-74
2022/12/21 11:55:04;;;;;;;119.57;45.15;;;8.50;99.90;;;;;;5029219;28;20046;-74
2022/12/21 11:57:36;;;;;;;97.55;43.38;;;8.50;99.90;;;;;;5029793;28;20041;-74
2022/12/21 12:00:16;;;;;;;96.72;43.05;;;8.50;99.90;;;;;;5029719;28;20094;-74
2022/12/21 12:03:13;;;;;;;100.95;43.40;;;8.60;99.90;;;;;;5028671;28;20053;-74
2022/12/21 12:05:59;;;;;;;111.72;43.45;;;8.60;99.90;;;;;;5027896;28;20048;-74
2022/12/21 12:08:50;;;;;;;84.18;38.45;;;8.60;99.90;;;;;;5029781;28;20061;-74
2022/12/21 12:11:25;;;;;;;108.13;43.65;;;8.60;99.90;;;;;;5028560;28;20057;-74
2022/12/21 12:14:28;;;;;;;110.07;41.42;;;8.60;99.90;;;;;;5024742;28;20097;-74
2022/12/21 12:17:00;;;;;;;95.85;43.00;;;8.60;99.90;;;;;;5035190;28;20067;-74
2022/12/21 12:19:57;;;;;;;104.10;46.78;;;8.60;99.90;;;;;;5020047;28;20046;-74
2022/12/21 12:22:47;;;;;;;108.32;45.63;;;8.70;99.90;;;;;;5027802;28;20103;-74
2022/12/21 12:25:46;;;;;;;104.32;47.28;;;8.70;99.90;;;;;;5024467;28;20056;-74
2022/12/21 12:28:38;;;;;;;99.47;45.83;;;8.60;99.90;;;;;;5024622;28;20494;-74
2022/12/21 12:31:25;;;;;;;102.75;42.55;;;8.60;99.90;;;;;;5023476;28;20056;-74
2022/12/21 12:33:57;;;;;;;106.38;44.67;;;8.60;99.90;;;;;;5027856;28;20045;-74
2022/12/21 12:36:40;;;;;;;104.13;49.30;;;8.70;99.90;;;;;;5028100;28;20054;-75
2022/12/21 12:39:18;;;;;;;100.28;48.35;;;8.60;99.90;;;;;;5028101;28;20056;-74
2022/12/21 12:42:27;;;;;;;106.78;48.22;;;8.60;99.90;;;;;;5023093;28;20045;-74
2022/12/21 12:45:13;;;;;;;106.80;46.50;;;8.70;99.90;;;;;;4994938;28;20061;-74
2022/12/21 12:47:42;;;;;;;96.93;46.90;;;8.60;99.90;;;;;;5019510;28;20506;-74
2022/12/21 12:50:22;;;;;;;;;;;8.60;99.90;;;;;;5028309;28;20154;-75
2022/12/21 12:53:14;;;;;;;100.95;45.65;;;8.60;99.90;;;;;;5022974;28;20302;-75
2022/12/21 12:56:04;;;;;;;97.90;45.47;;;8.60;99.90;;;;;;5027459;28;20126;-75
2022/12/21 12:58:59;;;;;;;105.15;46.67;;;8.50;99.90;;;;;;5009615;28;20116;-76
2022/12/21 13:01:50;;;;;;;101.85;44.88;;;8.50;99.90;;;;;;5024052;28;20041;-76
2022/12/21 13:04:34;;;;;;;98.13;46.78;;;8.50;99.90;;;;;;5038876;28;20052;-77
2022/12/21 13:07:29;;;;;;;108.57;46.67;;;8.40;99.90;;;;;;5024901;28;20045;-75